sensor_id;sensor_type;location;lat;lon;timestamp;temperature;humidity
15133;DHT22;7667;51.232;17.110;2023-11-19T00:00:11;1.80;99.90
15133;DHT22;7667;51.232;17.110;2023-11-19T00:02:41;1.70;99.90
15133;DHT22;7667;51.232;17.110;2023-11-19T00:05:10;1.60;99.90
15133;DHT22;7667;51.232;17.110;2023-11-19T00:07:41;1.60;99.90
15133;DHT22;7667;51.232;17.110;2023-11-19T00:10:10;1.60;99.90
15133;DHT22;7667;51.232;17.110;2023-11-19T00:12:41;1.50;99.90
15133;DHT22;7667;51.232;17.110;2023-11-19T00:15:10;1.50;99.90
15133;DHT22;7667;51.232;17.110;2023-11-19T00:17:43;1.50;99.90
15133;DHT22;7667;51.232;17.110;2023-11-19T00:20:18;1.50;99.90
15133;DHT22;7667;51.232;17.110;2023-11-19T00:22:47;1.50;99.90
15133;DHT22;7667;51.232;17.110;2023-11-19T00:25:19;1.60;99.90
15133;DHT22;7667;51.232;17.110;2023-11-19T00:27:52;1.60;99.90
15133;DHT22;7667;51.232;17.110;2023-11-19T00:30:21;1.70;99.90
15133;DHT22;7667;51.232;17.110;2023-11-19T00:32:49;1.70;99.90
15133;DHT22;7667;51.232;17.110;2023-11-19T00:35:16;1.70;99.90
15133;DHT22;7667;51.232;17.110;2023-11-19T00:37:44;1.70;99.90
15133;DHT22;7667;51.232;17.110;2023-11-19T00:40:13;1.70;99.90
15133;DHT22;7667;51.232;17.110;2023-11-19T00:42:43;1.70;99.90
15133;DHT22;7667;51.232;17.110;2023-11-19T00:45:11;1.60;99.90
15133;DHT22;7667;51.232;17.110;2023-11-19T00:47:40;1.60;99.90
15133;DHT22;7667;51.232;17.110;2023-11-19T00:50:08;1.50;99.90
15133;DHT22;7667;51.232;17.110;2023-11-19T00:52:37;1.40;99.90
15133;DHT22;7667;51.232;17.110;2023-11-19T00:55:05;1.30;99.90
15133;DHT22;7667;51.232;17.110;2023-11-19T00:57:34;1.30;99.90
15133;DHT22;7667;51.232;17.110;2023-11-19T01:00:04;1.20;99.90
15133;DHT22;7667;51.232;17.110;2023-11-19T01:02:51;1.10;99.90
15133;DHT22;7667;51.232;17.110;2023-11-19T01:05:20;1.00;99.90
15133;DHT22;7667;51.232;17.110;2023-11-19T01:07:50;1.00;99.90
15133;DHT22;7667;51.232;17.110;2023-11-19T01:10:20;0.90;99.90
15133;DHT22;7667;51.232;17.110;2023-11-19T01:12:48;0.90;99.90
15133;DHT22;7667;51.232;17.110;2023-11-19T01:15:16;0.90;99.90
15133;DHT22;7667;51.232;17.110;2023-11-19T01:17:46;0.80;99.90
15133;DHT22;7667;51.232;17.110;2023-11-19T01:20:17;0.70;99.90
15133;DHT22;7667;51.232;17.110;2023-11-19T01:22:44;0.70;99.90
15133;DHT22;7667;51.232;17.110;2023-11-19T01:25:12;0.70;99.90
15133;DHT22;7667;51.232;17.110;2023-11-19T01:27:39;0.60;99.90
15133;DHT22;7667;51.232;17.110;2023-11-19T01:30:08;0.60;99.90
15133;DHT22;7667;51.232;17.110;2023-11-19T01:32:42;0.50;99.90
15133;DHT22;7667;51.232;17.110;2023-11-19T01:35:10;0.50;99.90
15133;DHT22;7667;51.232;17.110;2023-11-19T01:37:38;0.60;99.90
15133;DHT22;7667;51.232;17.110;2023-11-19T01:40:05;0.60;99.90
15133;DHT22;7667;51.232;17.110;2023-11-19T01:42:38;0.60;99.90
15133;DHT22;7667;51.232;17.110;2023-11-19T01:45:07;0.60;99.90
15133;DHT22;7667;51.232;17.110;2023-11-19T01:47:37;0.60;99.90
15133;DHT22;7667;51.232;17.110;2023-11-19T01:50:06;0.60;99.90
15133;DHT22;7667;51.232;17.110;2023-11-19T01:52:35;0.70;99.90
15133;DHT22;7667;51.232;17.110;2023-11-19T01:55:07;0.70;99.90
15133;DHT22;7667;51.232;17.110;2023-11-19T01:57:36;0.70;99.90
15133;DHT22;7667;51.232;17.110;2023-11-19T02:00:10;0.70;99.90
15133;DHT22;7667;51.232;17.110;2023-11-19T02:02:40;0.80;99.90
15133;DHT22;7667;51.232;17.110;2023-11-19T02:05:10;0.80;99.90
15133;DHT22;7667;51.232;17.110;2023-11-19T02:07:38;0.80;99.90
15133;DHT22;7667;51.232;17.110;2023-11-19T02:10:06;0.80;99.90
15133;DHT22;7667;51.232;17.110;2023-11-19T02:12:34;0.80;99.90
15133;DHT22;7667;51.232;17.110;2023-11-19T02:15:06;0.70;99.90
15133;DHT22;7667;51.232;17.110;2023-11-19T02:17:34;0.70;99.90
15133;DHT22;7667;51.232;17.110;2023-11-19T02:20:01;0.70;99.90
15133;DHT22;7667;51.232;17.110;2023-11-19T02:22:30;0.70;99.90
15133;DHT22;7667;51.232;17.110;2023-11-19T02:25:01;0.80;99.90
15133;DHT22;7667;51.232;17.110;2023-11-19T02:27:59;0.80;99.90
15133;DHT22;7667;51.232;17.110;2023-11-19T02:30:28;0.70;99.90
15133;DHT22;7667;51.232;17.110;2023-11-19T02:32:56;0.70;99.90
15133;DHT22;7667;51.232;17.110;2023-11-19T02:35:25;0.70;99.90
15133;DHT22;7667;51.232;17.110;2023-11-19T02:37:59;0.70;99.90
15133;DHT22;7667;51.232;17.110;2023-11-19T02:40:27;0.70;99.90
15133;DHT22;7667;51.232;17.110;2023-11-19T02:42:56;0.70;99.90
15133;DHT22;7667;51.232;17.110;2023-11-19T02:45:24;0.70;99.90
15133;DHT22;7667;51.232;17.110;2023-11-19T02:47:53;0.70;99.90
15133;DHT22;7667;51.232;17.110;2023-11-19T02:50:22;0.70;99.90
15133;DHT22;7667;51.232;17.110;2023-11-19T02:52:55;0.70;99.90
15133;DHT22;7667;51.232;17.110;2023-11-19T02:55:25;0.70;99.90
15133;DHT22;7667;51.232;17.110;2023-11-19T02:57:55;0.80;99.90
15133;DHT22;7667;51.232;17.110;2023-11-19T03:00:26;0.80;99.90
15133;DHT22;7667;51.232;17.110;2023-11-19T03:03:03;0.70;99.90
15133;DHT22;7667;51.232;17.110;2023-11-19T03:05:47;0.70;99.90
15133;DHT22;7667;51.232;17.110;2023-11-19T03:08:15;0.70;99.90
15133;DHT22;7667;51.232;17.110;2023-11-19T03:10:46;0.80;99.90
15133;DHT22;7667;51.232;17.110;2023-11-19T03:13:14;0.70;99.90
15133;DHT22;7667;51.232;17.110;2023-11-19T03:15:42;0.70;99.90
15133;DHT22;7667;51.232;17.110;2023-11-19T03:18:10;0.70;99.90
15133;DHT22;7667;51.232;17.110;2023-11-19T03:20:37;0.70;99.90
15133;DHT22;7667;51.232;17.110;2023-11-19T03:23:05;0.70;99.90
15133;DHT22;7667;51.232;17.110;2023-11-19T03:25:33;0.70;99.90
15133;DHT22;7667;51.232;17.110;2023-11-19T03:28:01;0.70;99.90
15133;DHT22;7667;51.232;17.110;2023-11-19T03:30:31;0.80;99.90
15133;DHT22;7667;51.232;17.110;2023-11-19T03:33:01;0.70;99.90
15133;DHT22;7667;51.232;17.110;2023-11-19T03:35:29;0.70;99.90
15133;DHT22;7667;51.232;17.110;2023-11-19T03:37:57;0.70;99.90
15133;DHT22;7667;51.232;17.110;2023-11-19T03:40:25;0.70;99.90
15133;DHT22;7667;51.232;17.110;2023-11-19T03:42:52;0.70;99.90
15133;DHT22;7667;51.232;17.110;2023-11-19T03:45:20;0.70;99.90
15133;DHT22;7667;51.232;17.110;2023-11-19T03:47:47;0.70;99.90
15133;DHT22;7667;51.232;17.110;2023-11-19T03:50:17;0.70;99.90
15133;DHT22;7667;51.232;17.110;2023-11-19T03:52:48;0.70;99.90
15133;DHT22;7667;51.232;17.110;2023-11-19T03:55:15;0.70;99.90
15133;DHT22;7667;51.232;17.110;2023-11-19T03:57:43;0.80;99.90
15133;DHT22;7667;51.232;17.110;2023-11-19T04:00:11;0.80;99.90
15133;DHT22;7667;51.232;17.110;2023-11-19T04:02:41;0.70;99.90
15133;DHT22;7667;51.232;17.110;2023-11-19T04:05:09;0.70;99.90
15133;DHT22;7667;51.232;17.110;2023-11-19T04:07:37;0.60;99.90
15133;DHT22;7667;51.232;17.110;2023-11-19T04:10:05;0.70;99.90
15133;DHT22;7667;51.232;17.110;2023-11-19T04:12:33;0.70;99.90
15133;DHT22;7667;51.232;17.110;2023-11-19T04:15:00;0.70;99.90
15133;DHT22;7667;51.232;17.110;2023-11-19T04:17:28;0.70;99.90
15133;DHT22;7667;51.232;17.110;2023-11-19T04:19:56;0.70;99.90
15133;DHT22;7667;51.232;17.110;2023-11-19T04:22:23;0.70;99.90
15133;DHT22;7667;51.232;17.110;2023-11-19T04:24:51;0.60;99.90
15133;DHT22;7667;51.232;17.110;2023-11-19T04:27:19;0.70;99.90
15133;DHT22;7667;51.232;17.110;2023-11-19T04:29:46;0.70;99.90
15133;DHT22;7667;51.232;17.110;2023-11-19T04:32:14;0.70;99.90
15133;DHT22;7667;51.232;17.110;2023-11-19T04:34:41;0.70;99.90
15133;DHT22;7667;51.232;17.110;2023-11-19T04:37:09;0.70;99.90
15133;DHT22;7667;51.232;17.110;2023-11-19T04:39:40;0.70;99.90
15133;DHT22;7667;51.232;17.110;2023-11-19T04:42:07;0.70;99.90
15133;DHT22;7667;51.232;17.110;2023-11-19T04:44:35;0.70;99.90
15133;DHT22;7667;51.232;17.110;2023-11-19T04:47:03;0.70;99.90
15133;DHT22;7667;51.232;17.110;2023-11-19T04:49:31;0.80;99.90
15133;DHT22;7667;51.232;17.110;2023-11-19T04:51:58;0.70;99.90
15133;DHT22;7667;51.232;17.110;2023-11-19T04:54:26;0.80;99.90
15133;DHT22;7667;51.232;17.110;2023-11-19T04:56:53;0.80;99.90
15133;DHT22;7667;51.232;17.110;2023-11-19T04:59:21;0.90;99.90
15133;DHT22;7667;51.232;17.110;2023-11-19T05:01:49;0.90;99.90
15133;DHT22;7667;51.232;17.110;2023-11-19T05:04:16;0.90;99.90
15133;DHT22;7667;51.232;17.110;2023-11-19T05:06:46;0.90;99.90
15133;DHT22;7667;51.232;17.110;2023-11-19T05:09:13;0.90;99.90
15133;DHT22;7667;51.232;17.110;2023-11-19T05:11:41;0.90;99.90
15133;DHT22;7667;51.232;17.110;2023-11-19T05:14:11;0.90;99.90
15133;DHT22;7667;51.232;17.110;2023-11-19T05:16:40;1.00;99.90
15133;DHT22;7667;51.232;17.110;2023-11-19T05:19:10;1.00;99.90
15133;DHT22;7667;51.232;17.110;2023-11-19T05:21:37;1.00;99.90
15133;DHT22;7667;51.232;17.110;2023-11-19T05:24:05;1.00;99.90
15133;DHT22;7667;51.232;17.110;2023-11-19T05:26:33;1.00;99.90
15133;DHT22;7667;51.232;17.110;2023-11-19T05:29:01;1.00;99.90
15133;DHT22;7667;51.232;17.110;2023-11-19T05:31:28;1.00;99.90
15133;DHT22;7667;51.232;17.110;2023-11-19T05:33:58;0.90;99.90
15133;DHT22;7667;51.232;17.110;2023-11-19T05:36:26;0.90;99.90
15133;DHT22;7667;51.232;17.110;2023-11-19T05:38:56;0.90;99.90
15133;DHT22;7667;51.232;17.110;2023-11-19T05:41:23;1.00;99.90
15133;DHT22;7667;51.232;17.110;2023-11-19T05:43:51;1.00;99.90
15133;DHT22;7667;51.232;17.110;2023-11-19T05:46:19;1.00;99.90
15133;DHT22;7667;51.232;17.110;2023-11-19T05:48:47;1.00;99.90
15133;DHT22;7667;51.232;17.110;2023-11-19T05:51:15;1.10;99.90
15133;DHT22;7667;51.232;17.110;2023-11-19T05:53:43;1.10;99.90
15133;DHT22;7667;51.232;17.110;2023-11-19T05:56:13;1.10;99.90
15133;DHT22;7667;51.232;17.110;2023-11-19T05:58:43;1.10;99.90
15133;DHT22;7667;51.232;17.110;2023-11-19T06:01:12;1.20;99.90
15133;DHT22;7667;51.232;17.110;2023-11-19T06:03:40;1.20;99.90
15133;DHT22;7667;51.232;17.110;2023-11-19T06:06:07;1.20;99.90
15133;DHT22;7667;51.232;17.110;2023-11-19T06:08:36;1.20;99.90
15133;DHT22;7667;51.232;17.110;2023-11-19T06:11:04;1.20;99.90
15133;DHT22;7667;51.232;17.110;2023-11-19T06:13:32;1.20;99.90
15133;DHT22;7667;51.232;17.110;2023-11-19T06:15:59;1.20;99.90
15133;DHT22;7667;51.232;17.110;2023-11-19T06:18:27;1.30;99.90
15133;DHT22;7667;51.232;17.110;2023-11-19T06:20:54;1.30;99.90
15133;DHT22;7667;51.232;17.110;2023-11-19T06:23:22;1.40;99.90
15133;DHT22;7667;51.232;17.110;2023-11-19T06:25:50;1.30;99.90
15133;DHT22;7667;51.232;17.110;2023-11-19T06:28:17;1.30;99.90
15133;DHT22;7667;51.232;17.110;2023-11-19T06:30:45;1.30;99.90
15133;DHT22;7667;51.232;17.110;2023-11-19T06:33:15;1.30;99.90
15133;DHT22;7667;51.232;17.110;2023-11-19T06:35:43;1.30;99.90
15133;DHT22;7667;51.232;17.110;2023-11-19T06:38:11;1.30;99.90
15133;DHT22;7667;51.232;17.110;2023-11-19T06:40:38;1.30;99.90
15133;DHT22;7667;51.232;17.110;2023-11-19T06:43:08;1.40;99.90
15133;DHT22;7667;51.232;17.110;2023-11-19T06:45:36;1.40;99.90
15133;DHT22;7667;51.232;17.110;2023-11-19T06:48:04;1.40;99.90
15133;DHT22;7667;51.232;17.110;2023-11-19T06:50:32;1.50;99.90
15133;DHT22;7667;51.232;17.110;2023-11-19T06:53:00;1.40;99.90
15133;DHT22;7667;51.232;17.110;2023-11-19T06:55:28;1.50;99.90
15133;DHT22;7667;51.232;17.110;2023-11-19T06:57:56;1.40;99.90
15133;DHT22;7667;51.232;17.110;2023-11-19T07:00:23;1.40;99.90
15133;DHT22;7667;51.232;17.110;2023-11-19T07:02:51;1.40;99.90
15133;DHT22;7667;51.232;17.110;2023-11-19T07:05:18;1.40;99.90
15133;DHT22;7667;51.232;17.110;2023-11-19T07:07:46;1.40;99.90
15133;DHT22;7667;51.232;17.110;2023-11-19T07:10:14;1.40;99.90
15133;DHT22;7667;51.232;17.110;2023-11-19T07:12:42;1.50;99.90
15133;DHT22;7667;51.232;17.110;2023-11-19T07:15:12;1.50;99.90
15133;DHT22;7667;51.232;17.110;2023-11-19T07:17:40;1.50;99.90
15133;DHT22;7667;51.232;17.110;2023-11-19T07:20:08;1.60;99.90
15133;DHT22;7667;51.232;17.110;2023-11-19T07:22:36;1.70;99.90
15133;DHT22;7667;51.232;17.110;2023-11-19T07:25:05;1.70;99.90
15133;DHT22;7667;51.232;17.110;2023-11-19T07:27:33;1.70;99.90
15133;DHT22;7667;51.232;17.110;2023-11-19T07:30:00;1.70;99.90
15133;DHT22;7667;51.232;17.110;2023-11-19T07:32:28;1.80;99.90
15133;DHT22;7667;51.232;17.110;2023-11-19T07:34:56;1.90;99.90
15133;DHT22;7667;51.232;17.110;2023-11-19T07:37:23;2.00;99.90
15133;DHT22;7667;51.232;17.110;2023-11-19T07:39:51;2.10;99.90
15133;DHT22;7667;51.232;17.110;2023-11-19T07:42:18;2.10;99.90
15133;DHT22;7667;51.232;17.110;2023-11-19T07:44:46;2.20;99.90
15133;DHT22;7667;51.232;17.110;2023-11-19T07:47:14;2.30;99.90
15133;DHT22;7667;51.232;17.110;2023-11-19T07:49:41;2.30;99.90
15133;DHT22;7667;51.232;17.110;2023-11-19T07:52:11;2.40;99.90
15133;DHT22;7667;51.232;17.110;2023-11-19T07:54:42;2.50;99.90
15133;DHT22;7667;51.232;17.110;2023-11-19T07:57:10;2.40;99.90
15133;DHT22;7667;51.232;17.110;2023-11-19T07:59:37;2.40;99.90
15133;DHT22;7667;51.232;17.110;2023-11-19T08:02:06;2.40;99.90
15133;DHT22;7667;51.232;17.110;2023-11-19T08:04:34;2.40;99.90
15133;DHT22;7667;51.232;17.110;2023-11-19T08:07:02;2.40;99.90
15133;DHT22;7667;51.232;17.110;2023-11-19T08:09:29;2.40;99.90
15133;DHT22;7667;51.232;17.110;2023-11-19T08:11:57;2.40;99.90
15133;DHT22;7667;51.232;17.110;2023-11-19T08:14:25;2.40;99.90
15133;DHT22;7667;51.232;17.110;2023-11-19T08:16:53;2.30;99.90
15133;DHT22;7667;51.232;17.110;2023-11-19T08:19:20;2.30;99.90
15133;DHT22;7667;51.232;17.110;2023-11-19T08:21:48;2.30;99.90
15133;DHT22;7667;51.232;17.110;2023-11-19T08:24:15;2.20;99.90
15133;DHT22;7667;51.232;17.110;2023-11-19T08:26:43;2.10;99.90
15133;DHT22;7667;51.232;17.110;2023-11-19T08:29:11;2.10;99.90
15133;DHT22;7667;51.232;17.110;2023-11-19T08:31:38;2.20;99.90
15133;DHT22;7667;51.232;17.110;2023-11-19T08:34:06;2.10;99.90
15133;DHT22;7667;51.232;17.110;2023-11-19T08:36:36;2.10;99.90
15133;DHT22;7667;51.232;17.110;2023-11-19T08:39:03;2.10;99.90
15133;DHT22;7667;51.232;17.110;2023-11-19T08:41:31;2.10;99.90
15133;DHT22;7667;51.232;17.110;2023-11-19T08:43:59;2.00;99.90
15133;DHT22;7667;51.232;17.110;2023-11-19T08:46:26;2.00;99.90
15133;DHT22;7667;51.232;17.110;2023-11-19T08:48:54;2.00;99.90
15133;DHT22;7667;51.232;17.110;2023-11-19T08:51:25;1.90;99.90
15133;DHT22;7667;51.232;17.110;2023-11-19T08:53:52;1.90;99.90
15133;DHT22;7667;51.232;17.110;2023-11-19T08:56:20;1.80;99.90
15133;DHT22;7667;51.232;17.110;2023-11-19T08:58:47;1.70;99.90
15133;DHT22;7667;51.232;17.110;2023-11-19T09:01:15;1.60;99.90
15133;DHT22;7667;51.232;17.110;2023-11-19T09:03:42;1.60;99.90
15133;DHT22;7667;51.232;17.110;2023-11-19T09:06:10;1.50;99.90
15133;DHT22;7667;51.232;17.110;2023-11-19T09:08:38;1.50;99.90
15133;DHT22;7667;51.232;17.110;2023-11-19T09:11:09;1.40;99.90
15133;DHT22;7667;51.232;17.110;2023-11-19T09:13:37;1.40;99.90
15133;DHT22;7667;51.232;17.110;2023-11-19T09:16:04;1.40;99.90
15133;DHT22;7667;51.232;17.110;2023-11-19T09:18:32;1.50;99.90
15133;DHT22;7667;51.232;17.110;2023-11-19T09:21:00;1.50;99.90
15133;DHT22;7667;51.232;17.110;2023-11-19T09:23:27;1.50;99.90
15133;DHT22;7667;51.232;17.110;2023-11-19T09:25:57;1.50;99.90
15133;DHT22;7667;51.232;17.110;2023-11-19T09:28:27;1.50;99.90
15133;DHT22;7667;51.232;17.110;2023-11-19T09:30:54;1.60;99.90
15133;DHT22;7667;51.232;17.110;2023-11-19T09:33:22;1.70;99.90
15133;DHT22;7667;51.232;17.110;2023-11-19T09:35:50;1.70;99.90
15133;DHT22;7667;51.232;17.110;2023-11-19T09:38:18;1.80;99.90
15133;DHT22;7667;51.232;17.110;2023-11-19T09:40:45;1.80;99.90
15133;DHT22;7667;51.232;17.110;2023-11-19T09:43:15;1.90;99.90
15133;DHT22;7667;51.232;17.110;2023-11-19T09:45:48;1.90;99.90
15133;DHT22;7667;51.232;17.110;2023-11-19T09:48:18;1.90;99.90
15133;DHT22;7667;51.232;17.110;2023-11-19T09:50:50;2.10;99.90
15133;DHT22;7667;51.232;17.110;2023-11-19T09:53:19;2.00;99.90
15133;DHT22;7667;51.232;17.110;2023-11-19T09:55:48;2.10;99.90
15133;DHT22;7667;51.232;17.110;2023-11-19T09:58:15;2.20;99.90
15133;DHT22;7667;51.232;17.110;2023-11-19T10:00:44;2.10;99.90
15133;DHT22;7667;51.232;17.110;2023-11-19T10:03:23;2.10;99.90
15133;DHT22;7667;51.232;17.110;2023-11-19T10:05:50;2.20;99.90
15133;DHT22;7667;51.232;17.110;2023-11-19T10:08:18;2.10;99.90
15133;DHT22;7667;51.232;17.110;2023-11-19T10:10:46;2.30;99.90
15133;DHT22;7667;51.232;17.110;2023-11-19T10:13:14;2.30;99.90
15133;DHT22;7667;51.232;17.110;2023-11-19T10:15:44;2.40;99.90
15133;DHT22;7667;51.232;17.110;2023-11-19T10:18:14;2.40;99.90
15133;DHT22;7667;51.232;17.110;2023-11-19T10:20:42;2.40;99.90
15133;DHT22;7667;51.232;17.110;2023-11-19T10:23:11;2.50;99.90
15133;DHT22;7667;51.232;17.110;2023-11-19T10:25:39;2.50;99.90
15133;DHT22;7667;51.232;17.110;2023-11-19T10:28:06;2.60;99.90
15133;DHT22;7667;51.232;17.110;2023-11-19T10:30:34;2.60;99.90
15133;DHT22;7667;51.232;17.110;2023-11-19T10:33:14;2.80;99.90
15133;DHT22;7667;51.232;17.110;2023-11-19T10:35:55;3.10;99.90
15133;DHT22;7667;51.232;17.110;2023-11-19T10:38:28;3.20;99.90
15133;DHT22;7667;51.232;17.110;2023-11-19T10:40:57;3.10;99.90
15133;DHT22;7667;51.232;17.110;2023-11-19T10:43:26;3.20;99.90
15133;DHT22;7667;51.232;17.110;2023-11-19T10:46:12;3.30;99.90
15133;DHT22;7667;51.232;17.110;2023-11-19T10:48:40;3.30;99.90
15133;DHT22;7667;51.232;17.110;2023-11-19T10:51:08;3.30;99.90
15133;DHT22;7667;51.232;17.110;2023-11-19T10:53:38;3.30;99.90
15133;DHT22;7667;51.232;17.110;2023-11-19T10:56:10;3.40;99.90
15133;DHT22;7667;51.232;17.110;2023-11-19T10:58:44;3.40;99.90
15133;DHT22;7667;51.232;17.110;2023-11-19T11:01:24;3.50;99.90
15133;DHT22;7667;51.232;17.110;2023-11-19T11:03:59;3.60;99.90
15133;DHT22;7667;51.232;17.110;2023-11-19T11:06:27;3.60;99.90
15133;DHT22;7667;51.232;17.110;2023-11-19T11:08:56;3.70;99.90
15133;DHT22;7667;51.232;17.110;2023-11-19T11:11:23;3.70;99.90
15133;DHT22;7667;51.232;17.110;2023-11-19T11:13:53;3.80;99.90
15133;DHT22;7667;51.232;17.110;2023-11-19T11:16:22;3.70;99.90
15133;DHT22;7667;51.232;17.110;2023-11-19T11:18:51;3.80;99.90
15133;DHT22;7667;51.232;17.110;2023-11-19T11:21:22;3.80;99.90
15133;DHT22;7667;51.232;17.110;2023-11-19T11:24:20;3.70;99.90
15133;DHT22;7667;51.232;17.110;2023-11-19T11:29:56;3.70;99.90
15133;DHT22;7667;51.232;17.110;2023-11-19T11:36:19;3.70;99.90
15133;DHT22;7667;51.232;17.110;2023-11-19T11:38:50;3.70;99.90
15133;DHT22;7667;51.232;17.110;2023-11-19T11:41:20;3.80;99.90
15133;DHT22;7667;51.232;17.110;2023-11-19T11:43:56;3.80;99.90
15133;DHT22;7667;51.232;17.110;2023-11-19T11:49:08;3.80;99.90
15133;DHT22;7667;51.232;17.110;2023-11-19T11:54:26;3.80;99.90
15133;DHT22;7667;51.232;17.110;2023-11-19T11:57:26;3.80;99.90
15133;DHT22;7667;51.232;17.110;2023-11-19T12:00:03;3.80;99.90
15133;DHT22;7667;51.232;17.110;2023-11-19T12:02:32;3.80;99.90
15133;DHT22;7667;51.232;17.110;2023-11-19T12:05:00;3.80;99.90
15133;DHT22;7667;51.232;17.110;2023-11-19T12:07:31;3.90;99.90
15133;DHT22;7667;51.232;17.110;2023-11-19T12:10:08;3.90;99.90
15133;DHT22;7667;51.232;17.110;2023-11-19T12:12:40;3.90;99.90
15133;DHT22;7667;51.232;17.110;2023-11-19T12:15:09;4.00;99.90
15133;DHT22;7667;51.232;17.110;2023-11-19T12:17:41;4.00;99.90
15133;DHT22;7667;51.232;17.110;2023-11-19T12:20:18;4.10;99.90
15133;DHT22;7667;51.232;17.110;2023-11-19T12:22:51;4.20;99.90
15133;DHT22;7667;51.232;17.110;2023-11-19T12:25:20;4.40;99.90
15133;DHT22;7667;51.232;17.110;2023-11-19T12:27:49;4.50;99.90
15133;DHT22;7667;51.232;17.110;2023-11-19T12:30:25;4.50;99.90
15133;DHT22;7667;51.232;17.110;2023-11-19T12:32:54;4.50;99.90
15133;DHT22;7667;51.232;17.110;2023-11-19T12:35:23;4.50;99.90
15133;DHT22;7667;51.232;17.110;2023-11-19T12:37:52;4.50;99.90
15133;DHT22;7667;51.232;17.110;2023-11-19T12:40:22;4.60;99.90
15133;DHT22;7667;51.232;17.110;2023-11-19T12:42:54;4.80;99.90
15133;DHT22;7667;51.232;17.110;2023-11-19T12:45:23;4.90;99.90
15133;DHT22;7667;51.232;17.110;2023-11-19T12:48:05;5.00;99.90
15133;DHT22;7667;51.232;17.110;2023-11-19T12:50:52;5.20;99.90
15133;DHT22;7667;51.232;17.110;2023-11-19T12:53:25;5.20;99.90
15133;DHT22;7667;51.232;17.110;2023-11-19T12:55:55;5.20;99.90
15133;DHT22;7667;51.232;17.110;2023-11-19T12:58:32;5.20;99.90
15133;DHT22;7667;51.232;17.110;2023-11-19T13:01:06;5.10;99.90
15133;DHT22;7667;51.232;17.110;2023-11-19T13:03:36;5.10;99.90
15133;DHT22;7667;51.232;17.110;2023-11-19T13:06:13;5.10;99.90
15133;DHT22;7667;51.232;17.110;2023-11-19T13:08:45;5.20;99.90
15133;DHT22;7667;51.232;17.110;2023-11-19T13:11:33;5.30;99.90
15133;DHT22;7667;51.232;17.110;2023-11-19T13:14:04;5.30;99.90
15133;DHT22;7667;51.232;17.110;2023-11-19T13:16:32;5.40;99.90
15133;DHT22;7667;51.232;17.110;2023-11-19T13:19:00;5.40;99.90
15133;DHT22;7667;51.232;17.110;2023-11-19T13:21:28;5.50;99.90
15133;DHT22;7667;51.232;17.110;2023-11-19T13:23:59;5.70;99.90
15133;DHT22;7667;51.232;17.110;2023-11-19T13:26:27;5.60;99.90
15133;DHT22;7667;51.232;17.110;2023-11-19T13:28:55;5.60;99.90
15133;DHT22;7667;51.232;17.110;2023-11-19T13:31:22;5.60;99.90
15133;DHT22;7667;51.232;17.110;2023-11-19T13:33:50;5.60;99.90
15133;DHT22;7667;51.232;17.110;2023-11-19T13:36:18;5.60;99.90
15133;DHT22;7667;51.232;17.110;2023-11-19T13:38:46;5.60;99.90
15133;DHT22;7667;51.232;17.110;2023-11-19T13:41:14;5.50;99.90
15133;DHT22;7667;51.232;17.110;2023-11-19T13:43:42;5.60;99.90
15133;DHT22;7667;51.232;17.110;2023-11-19T13:46:09;5.70;99.90
15133;DHT22;7667;51.232;17.110;2023-11-19T13:48:38;5.80;99.90
15133;DHT22;7667;51.232;17.110;2023-11-19T13:51:06;5.90;99.90
15133;DHT22;7667;51.232;17.110;2023-11-19T13:53:33;6.00;99.90
15133;DHT22;7667;51.232;17.110;2023-11-19T13:56:04;5.80;99.90
15133;DHT22;7667;51.232;17.110;2023-11-19T13:58:32;5.70;99.90
15133;DHT22;7667;51.232;17.110;2023-11-19T14:01:00;5.70;99.90
15133;DHT22;7667;51.232;17.110;2023-11-19T14:03:29;5.80;99.90
15133;DHT22;7667;51.232;17.110;2023-11-19T14:05:56;5.70;99.90
15133;DHT22;7667;51.232;17.110;2023-11-19T14:08:25;5.80;99.90
15133;DHT22;7667;51.232;17.110;2023-11-19T14:10:53;6.00;99.90
15133;DHT22;7667;51.232;17.110;2023-11-19T14:13:23;6.50;99.90
15133;DHT22;7667;51.232;17.110;2023-11-19T14:15:51;7.00;99.90
15133;DHT22;7667;51.232;17.110;2023-11-19T14:18:19;7.30;99.90
15133;DHT22;7667;51.232;17.110;2023-11-19T14:20:47;7.80;99.90
15133;DHT22;7667;51.232;17.110;2023-11-19T14:23:14;7.80;99.90
15133;DHT22;7667;51.232;17.110;2023-11-19T14:25:43;7.60;99.90
15133;DHT22;7667;51.232;17.110;2023-11-19T14:28:10;7.10;99.90
15133;DHT22;7667;51.232;17.110;2023-11-19T14:30:38;6.80;99.90
15133;DHT22;7667;51.232;17.110;2023-11-19T14:33:06;6.70;99.90
15133;DHT22;7667;51.232;17.110;2023-11-19T14:35:34;6.60;99.90
15133;DHT22;7667;51.232;17.110;2023-11-19T14:38:02;6.20;99.90
15133;DHT22;7667;51.232;17.110;2023-11-19T14:40:32;5.90;99.90
15133;DHT22;7667;51.232;17.110;2023-11-19T14:43:02;5.60;99.90
15133;DHT22;7667;51.232;17.110;2023-11-19T14:45:30;5.40;99.90
15133;DHT22;7667;51.232;17.110;2023-11-19T14:48:10;5.20;99.90
15133;DHT22;7667;51.232;17.110;2023-11-19T14:50:38;5.20;99.90
15133;DHT22;7667;51.232;17.110;2023-11-19T14:53:05;5.20;99.90
15133;DHT22;7667;51.232;17.110;2023-11-19T14:55:33;5.20;99.90
15133;DHT22;7667;51.232;17.110;2023-11-19T14:58:00;5.20;99.90
15133;DHT22;7667;51.232;17.110;2023-11-19T15:00:36;5.10;99.90
15133;DHT22;7667;51.232;17.110;2023-11-19T15:03:03;5.20;99.90
15133;DHT22;7667;51.232;17.110;2023-11-19T15:05:31;5.30;99.90
15133;DHT22;7667;51.232;17.110;2023-11-19T15:07:59;5.30;99.90
15133;DHT22;7667;51.232;17.110;2023-11-19T15:10:26;5.10;99.90
15133;DHT22;7667;51.232;17.110;2023-11-19T15:12:54;5.00;99.90
15133;DHT22;7667;51.232;17.110;2023-11-19T15:15:22;5.10;99.90
15133;DHT22;7667;51.232;17.110;2023-11-19T15:17:52;5.20;99.90
15133;DHT22;7667;51.232;17.110;2023-11-19T15:20:20;5.30;99.90
15133;DHT22;7667;51.232;17.110;2023-11-19T15:22:48;5.30;99.90
15133;DHT22;7667;51.232;17.110;2023-11-19T15:25:15;5.20;99.90
15133;DHT22;7667;51.232;17.110;2023-11-19T15:27:43;5.20;99.90
15133;DHT22;7667;51.232;17.110;2023-11-19T15:30:11;5.10;99.90
15133;DHT22;7667;51.232;17.110;2023-11-19T15:32:39;5.00;99.90
15133;DHT22;7667;51.232;17.110;2023-11-19T15:35:09;4.70;99.90
15133;DHT22;7667;51.232;17.110;2023-11-19T15:37:41;4.50;99.90
15133;DHT22;7667;51.232;17.110;2023-11-19T15:40:11;4.50;99.90
15133;DHT22;7667;51.232;17.110;2023-11-19T15:42:41;4.60;99.90
15133;DHT22;7667;51.232;17.110;2023-11-19T15:45:10;4.60;99.90
15133;DHT22;7667;51.232;17.110;2023-11-19T15:47:39;4.60;99.90
15133;DHT22;7667;51.232;17.110;2023-11-19T15:50:07;4.50;99.90
15133;DHT22;7667;51.232;17.110;2023-11-19T15:52:37;4.40;99.90
15133;DHT22;7667;51.232;17.110;2023-11-19T15:55:05;4.20;99.90
15133;DHT22;7667;51.232;17.110;2023-11-19T15:57:33;4.00;99.90
15133;DHT22;7667;51.232;17.110;2023-11-19T16:00:01;3.70;99.90
15133;DHT22;7667;51.232;17.110;2023-11-19T16:02:28;3.60;99.90
15133;DHT22;7667;51.232;17.110;2023-11-19T16:04:56;3.50;99.90
15133;DHT22;7667;51.232;17.110;2023-11-19T16:07:24;3.90;99.90
15133;DHT22;7667;51.232;17.110;2023-11-19T16:09:52;3.90;99.90